This is the latest recevied weather packets stored in our database for station/object N0THY. If no packets are shown the sender has not sent any weather packets the latest 10 day(s).
| Time | Temp. | Humidity | Pressure | Rain* | Wind** | Luminosity | Snow |
|---|---|---|---|---|---|---|---|
| 1777508300 | 16.67° C | 27% | 1015.7 hPa | 1.02 mm | - | - | - |
| 1777507397 | 15.56° C | 29% | 1015.8 hPa | 1.02 mm | - | - | - |
| 1777506495 | 16.11° C | 28% | 1015.8 hPa | 1.02 mm | - | - | - |
| 1777505592 | 18.33° C | 25% | 1015.7 hPa | 1.02 mm | - | - | - |
| 1777504689 | 18.89° C | 24% | 1015.6 hPa | 1.02 mm | - | - | - |
| 1777503786 | 18.33° C | 26% | 1015.6 hPa | 1.02 mm | - | - | - |
| 1777502883 | 17.78° C | 27% | 1015.6 hPa | 1.02 mm | - | - | - |
| 1777501077 | 18.89° C | 29% | 1015.6 hPa | 1.02 mm | - | - | - |
| 1777500174 | 17.78° C | 34% | 1015.7 hPa | 1.02 mm | - | - | - |
| 1777499271 | 16.67° C | 40% | 1015.9 hPa | 1.02 mm | - | - | - |
| 1777498368 | 13.33° C | 49% | 1016.4 hPa | 1.02 mm | - | - | - |
| 1777497465 | 15° C | 40% | 1016.7 hPa | 0.76 mm | - | - | - |
| 1777496562 | 17.22° C | 33% | 1016.3 hPa | 0.51 mm | - | - | - |
| 1777495659 | 16.11° C | 40% | 1016.6 hPa | 0.51 mm | - | - | - |
| 1777494756 | 13.33° C | 50% | 1016.8 hPa | 0.51 mm | - | - | - |
| 1777493853 | 11.67° C | 49% | 1017.2 hPa | 0.25 mm | - | - | - |
| 1777492950 | 15° C | 38% | 1017.3 hPa | 0 mm | - | - | - |
| 1777492047 | 18.33° C | 27% | 1016.7 hPa | 0 mm | - | - | - |
| 1777491145 | 18.89° C | 29% | 1016.7 hPa | 0 mm | - | - | - |
| 1777490242 | 17.78° C | 30% | 1017 hPa | 0 mm | - | - | - |
| 1777489339 | 17.22° C | 31% | 1017.1 hPa | 0 mm | - | - | - |
| 1777488436 | 17.22° C | 31% | 1017.3 hPa | 0 mm | - | - | - |
| 1777487533 | 18.33° C | 31% | 1017.4 hPa | 0 mm | - | - | - |
| 1777486630 | 17.22° C | 34% | 1017.6 hPa | 0 mm | - | - | - |
| 1777485727 | 17.78° C | 30% | 1017.8 hPa | 0 mm | - | - | - |
* Rain since midnight (hover to see other rain measurements)
** Current wind speed in m/s (hover to see current wind gust speed)